Overview Statistics Trail Chart Weather Telemetry Raw packets
 

This is the latest recevied weather packets stored in our database for station/object OH2HCY. If no packets are shown the sender has not sent any weather packets the latest 10 day(s).

<< 61 62 63 64 65 >>
Time Temp. Humidity Pressure Rain* Wind** Luminosity Snow
1787729385 17.22° C 69% 1018.9 hPa - - - -
1787728839 17.22° C 71% 1018.9 hPa - - - -
1787728295 16.67° C 72% 1019 hPa - - - -
1787727750 16.67° C 72% 1018.9 hPa - - - -
1787727195 16.67° C 75% 1019 hPa - - - -
1787726670 16.11° C 77% 1019.1 hPa - - - -
1787726125 15.56° C 78% 1019.3 hPa - - - -
1787725620 15.56° C 79% 1019.4 hPa - - - -
1787725045 15° C 81% 1019.6 hPa - - - -
1787724500 13.89° C 83% 1019.9 hPa - - - -
1787723980 13.89° C 84% 1019.9 hPa - - - -
1787723470 13.33° C 85% 1020.1 hPa - - - -
1787722920 13.33° C 86% 1020.3 hPa - - - -
1787722375 12.78° C 87% 1020.3 hPa - - - -
1787721860 12.78° C 87% 1020.3 hPa - - - -
1787721325 12.78° C 87% 1020.4 hPa - - - -
1787720810 12.22° C 88% 1020.4 hPa - - - -
1787720220 12.22° C 88% 1020.4 hPa - - - -
1787719665 12.22° C 88% 1020.5 hPa - - - -
1787719095 11.67° C 88% 1020.6 hPa - - - -
1787718549 11.67° C 89% 1020.7 hPa - - - -
1787718010 11.67° C 89% 1020.7 hPa - - - -
1787717495 11.11° C 89% 1020.7 hPa - - - -
1787716935 11.11° C 89% 1020.7 hPa - - - -
1787716415 11.11° C 89% 1020.6 hPa - - - -

* Rain since midnight (hover to see other rain measurements)
** Current wind speed in m/s (hover to see current wind gust speed)